This is the latest recevied weather packets stored in our database for station/object OK1KZE-6. If no packets are shown the sender has not sent any weather packets the latest 10 day(s).
| Time | Temp. | Humidity | Pressure | Rain* | Wind** | Luminosity | Snow |
|---|---|---|---|---|---|---|---|
| 1777812307 | 24.44° C | 29% | 1017.2 hPa | - | - | - | - |
| 1777812007 | 23.89° C | 28% | 1017.6 hPa | - | - | - | - |
| 1777811707 | 23.89° C | 27% | 1017.7 hPa | - | - | - | - |
| 1777811408 | 23.89° C | 29% | 1017.6 hPa | - | - | - | - |
| 1777811106 | 24.44° C | 29% | 1017.7 hPa | - | - | - | - |
| 1777810808 | 23.89° C | 29% | 1017.6 hPa | - | - | - | - |
| 1777810508 | 23.33° C | 28% | 1017.5 hPa | - | - | - | - |
| 1777810207 | 22.78° C | 30% | 1017.8 hPa | - | - | - | - |
| 1777809908 | 23.33° C | 29% | 1017.9 hPa | - | - | - | - |
| 1777809607 | 23.33° C | 29% | 1017.9 hPa | - | - | - | - |
| 1777809307 | -1.11° C | 100% | 1017.9 hPa | - | - | - | - |
| 1777809007 | -1.11° C | 100% | 1018 hPa | - | - | - | - |
| 1777808707 | 23.33° C | 28% | 1018.1 hPa | - | - | - | - |
| 1777808407 | 23.33° C | 28% | 1018.1 hPa | - | - | - | - |
| 1777808107 | 22.78° C | 28% | 1018.2 hPa | - | - | - | - |
| 1777807808 | 23.33° C | 31% | 1018.2 hPa | - | - | - | - |
| 1777807507 | 23.33° C | 31% | 1018.2 hPa | - | - | - | - |
| 1777807207 | 23.89° C | 29% | 1018.2 hPa | - | - | - | - |
| 1777806907 | 22.78° C | 31% | 1018.3 hPa | - | - | - | - |
| 1777806607 | 22.78° C | 30% | 1018.3 hPa | - | - | - | - |
| 1777806306 | 22.78° C | 30% | 1018.7 hPa | - | - | - | - |
| 1777806007 | 22.78° C | 30% | 1018.6 hPa | - | - | - | - |
| 1777805707 | 23.33° C | 31% | 1018.5 hPa | - | - | - | - |
| 1777805407 | 22.78° C | 32% | 1018.5 hPa | - | - | - | - |
| 1777805107 | 23.33° C | 31% | 1018.8 hPa | - | - | - | - |
* Rain since midnight (hover to see other rain measurements)
** Current wind speed in m/s (hover to see current wind gust speed)